sensor_id;sensor_type;location;lat;lon;timestamp;temperature;humidity
3406;DHT22;10008;48.682;9.016;2023-06-10T00:01:42;18.70;90.20
3406;DHT22;10008;48.682;9.016;2023-06-10T00:04:08;18.60;90.40
3406;DHT22;10008;48.682;9.016;2023-06-10T00:06:34;18.60;91.00
3406;DHT22;10008;48.682;9.016;2023-06-10T00:09:05;18.50;90.90
3406;DHT22;10008;48.682;9.016;2023-06-10T00:11:32;18.50;91.50
3406;DHT22;10008;48.682;9.016;2023-06-10T00:13:58;18.40;93.00
3406;DHT22;10008;48.682;9.016;2023-06-10T00:16:24;18.30;93.10
3406;DHT22;10008;48.682;9.016;2023-06-10T00:18:50;18.20;93.50
3406;DHT22;10008;48.682;9.016;2023-06-10T00:21:22;18.10;94.30
3406;DHT22;10008;48.682;9.016;2023-06-10T00:23:50;18.00;95.20
3406;DHT22;10008;48.682;9.016;2023-06-10T00:26:15;17.80;96.20
3406;DHT22;10008;48.682;9.016;2023-06-10T00:28:43;17.70;97.60
3406;DHT22;10008;48.682;9.016;2023-06-10T00:31:10;17.70;98.60
3406;DHT22;10008;48.682;9.016;2023-06-10T00:33:37;17.50;98.60
3406;DHT22;10008;48.682;9.016;2023-06-10T00:36:03;17.40;99.00
3406;DHT22;10008;48.682;9.016;2023-06-10T00:38:29;17.20;99.40
3406;DHT22;10008;48.682;9.016;2023-06-10T00:40:54;17.10;99.90
3406;DHT22;10008;48.682;9.016;2023-06-10T00:43:20;17.00;99.90
3406;DHT22;10008;48.682;9.016;2023-06-10T00:45:46;16.90;99.90
3406;DHT22;10008;48.682;9.016;2023-06-10T00:48:12;16.70;99.90
3406;DHT22;10008;48.682;9.016;2023-06-10T00:50:38;16.70;99.90
3406;DHT22;10008;48.682;9.016;2023-06-10T00:53:07;16.60;99.90
3406;DHT22;10008;48.682;9.016;2023-06-10T00:55:34;16.50;99.90
3406;DHT22;10008;48.682;9.016;2023-06-10T00:58:01;16.50;99.90
3406;DHT22;10008;48.682;9.016;2023-06-10T01:00:28;16.50;99.90
3406;DHT22;10008;48.682;9.016;2023-06-10T01:02:53;16.40;99.90
3406;DHT22;10008;48.682;9.016;2023-06-10T01:05:19;16.50;99.90
3406;DHT22;10008;48.682;9.016;2023-06-10T01:13:11;16.40;99.90
3406;DHT22;10008;48.682;9.016;2023-06-10T01:15:39;16.30;99.90
3406;DHT22;10008;48.682;9.016;2023-06-10T01:18:07;16.30;99.90
3406;DHT22;10008;48.682;9.016;2023-06-10T01:20:41;16.20;99.90
3406;DHT22;10008;48.682;9.016;2023-06-10T01:23:09;16.10;99.90
3406;DHT22;10008;48.682;9.016;2023-06-10T01:28:44;15.90;99.90
3406;DHT22;10008;48.682;9.016;2023-06-10T01:31:37;15.80;99.90
3406;DHT22;10008;48.682;9.016;2023-06-10T01:34:03;15.70;99.90
3406;DHT22;10008;48.682;9.016;2023-06-10T01:36:33;15.70;99.90
3406;DHT22;10008;48.682;9.016;2023-06-10T01:39:00;15.60;99.90
3406;DHT22;10008;48.682;9.016;2023-06-10T01:41:28;15.50;99.90
3406;DHT22;10008;48.682;9.016;2023-06-10T01:43:54;15.50;99.90
3406;DHT22;10008;48.682;9.016;2023-06-10T01:46:20;15.50;99.90
3406;DHT22;10008;48.682;9.016;2023-06-10T01:48:47;15.40;99.90
3406;DHT22;10008;48.682;9.016;2023-06-10T01:51:15;15.30;99.90
3406;DHT22;10008;48.682;9.016;2023-06-10T01:53:41;15.30;99.90
3406;DHT22;10008;48.682;9.016;2023-06-10T01:56:06;15.30;99.90
3406;DHT22;10008;48.682;9.016;2023-06-10T01:58:32;15.20;99.90
3406;DHT22;10008;48.682;9.016;2023-06-10T02:00:58;15.20;99.90
3406;DHT22;10008;48.682;9.016;2023-06-10T02:03:24;15.20;99.90
3406;DHT22;10008;48.682;9.016;2023-06-10T02:05:49;15.10;99.90
3406;DHT22;10008;48.682;9.016;2023-06-10T02:08:15;15.10;99.90
3406;DHT22;10008;48.682;9.016;2023-06-10T02:10:41;15.10;99.90
3406;DHT22;10008;48.682;9.016;2023-06-10T02:13:07;15.00;99.90
3406;DHT22;10008;48.682;9.016;2023-06-10T02:15:33;14.90;99.90
3406;DHT22;10008;48.682;9.016;2023-06-10T02:17:59;14.90;99.90
3406;DHT22;10008;48.682;9.016;2023-06-10T02:20:26;14.90;99.90
3406;DHT22;10008;48.682;9.016;2023-06-10T02:22:52;15.00;99.90
3406;DHT22;10008;48.682;9.016;2023-06-10T02:25:18;14.90;99.90
3406;DHT22;10008;48.682;9.016;2023-06-10T02:27:44;15.00;99.90
3406;DHT22;10008;48.682;9.016;2023-06-10T02:30:10;15.00;99.90
3406;DHT22;10008;48.682;9.016;2023-06-10T02:32:37;14.90;99.90
3406;DHT22;10008;48.682;9.016;2023-06-10T02:35:03;14.90;99.90
3406;DHT22;10008;48.682;9.016;2023-06-10T02:37:29;14.90;99.90
3406;DHT22;10008;48.682;9.016;2023-06-10T02:39:56;14.80;99.90
3406;DHT22;10008;48.682;9.016;2023-06-10T02:42:22;14.70;99.90
3406;DHT22;10008;48.682;9.016;2023-06-10T02:44:49;14.80;99.90
3406;DHT22;10008;48.682;9.016;2023-06-10T02:47:23;14.80;99.90
3406;DHT22;10008;48.682;9.016;2023-06-10T02:49:49;14.80;99.90
3406;DHT22;10008;48.682;9.016;2023-06-10T02:52:15;14.90;99.90
3406;DHT22;10008;48.682;9.016;2023-06-10T02:54:41;14.80;99.90
3406;DHT22;10008;48.682;9.016;2023-06-10T02:57:08;14.80;99.90
3406;DHT22;10008;48.682;9.016;2023-06-10T02:59:36;14.70;99.90
3406;DHT22;10008;48.682;9.016;2023-06-10T03:02:02;14.70;99.90
3406;DHT22;10008;48.682;9.016;2023-06-10T03:04:29;14.70;99.90
3406;DHT22;10008;48.682;9.016;2023-06-10T03:07:04;14.60;99.90
3406;DHT22;10008;48.682;9.016;2023-06-10T03:09:34;14.50;99.90
3406;DHT22;10008;48.682;9.016;2023-06-10T03:12:01;14.50;99.90
3406;DHT22;10008;48.682;9.016;2023-06-10T03:14:32;14.50;99.90
3406;DHT22;10008;48.682;9.016;2023-06-10T03:16:58;14.50;99.90
3406;DHT22;10008;48.682;9.016;2023-06-10T03:19:25;14.60;99.90
3406;DHT22;10008;48.682;9.016;2023-06-10T03:22:08;14.50;99.90
3406;DHT22;10008;48.682;9.016;2023-06-10T03:24:37;14.50;99.90
3406;DHT22;10008;48.682;9.016;2023-06-10T03:27:07;14.50;99.90
3406;DHT22;10008;48.682;9.016;2023-06-10T03:29:35;14.50;99.90
3406;DHT22;10008;48.682;9.016;2023-06-10T03:32:01;14.50;99.90
3406;DHT22;10008;48.682;9.016;2023-06-10T03:34:28;14.50;99.90
3406;DHT22;10008;48.682;9.016;2023-06-10T03:36:56;14.50;99.90
3406;DHT22;10008;48.682;9.016;2023-06-10T03:39:22;14.50;99.90
3406;DHT22;10008;48.682;9.016;2023-06-10T03:41:49;14.50;99.90
3406;DHT22;10008;48.682;9.016;2023-06-10T03:44:15;14.50;99.90
3406;DHT22;10008;48.682;9.016;2023-06-10T03:46:41;14.50;99.90
3406;DHT22;10008;48.682;9.016;2023-06-10T03:49:07;14.60;99.90
3406;DHT22;10008;48.682;9.016;2023-06-10T03:51:36;14.60;99.90
3406;DHT22;10008;48.682;9.016;2023-06-10T03:54:02;14.60;99.90
3406;DHT22;10008;48.682;9.016;2023-06-10T03:56:28;14.60;99.90
3406;DHT22;10008;48.682;9.016;2023-06-10T03:58:54;14.50;99.90
3406;DHT22;10008;48.682;9.016;2023-06-10T04:01:21;14.50;99.90
3406;DHT22;10008;48.682;9.016;2023-06-10T04:03:49;14.50;99.90
3406;DHT22;10008;48.682;9.016;2023-06-10T04:06:17;14.50;99.90
3406;DHT22;10008;48.682;9.016;2023-06-10T04:08:43;14.60;99.90
3406;DHT22;10008;48.682;9.016;2023-06-10T04:11:10;14.60;99.90
3406;DHT22;10008;48.682;9.016;2023-06-10T04:13:36;14.60;99.90
3406;DHT22;10008;48.682;9.016;2023-06-10T04:16:02;14.60;99.90
3406;DHT22;10008;48.682;9.016;2023-06-10T04:18:28;14.70;99.90
3406;DHT22;10008;48.682;9.016;2023-06-10T04:20:57;14.70;99.90
3406;DHT22;10008;48.682;9.016;2023-06-10T04:23:23;14.60;99.90
3406;DHT22;10008;48.682;9.016;2023-06-10T04:25:48;14.60;99.90
3406;DHT22;10008;48.682;9.016;2023-06-10T04:28:14;14.60;99.90
3406;DHT22;10008;48.682;9.016;2023-06-10T04:30:41;14.60;99.90
3406;DHT22;10008;48.682;9.016;2023-06-10T04:33:07;14.70;99.90
3406;DHT22;10008;48.682;9.016;2023-06-10T04:35:35;14.80;99.90
3406;DHT22;10008;48.682;9.016;2023-06-10T04:38:02;15.00;99.90
3406;DHT22;10008;48.682;9.016;2023-06-10T04:40:29;15.00;99.90
3406;DHT22;10008;48.682;9.016;2023-06-10T04:42:55;15.00;99.90
3406;DHT22;10008;48.682;9.016;2023-06-10T04:45:21;15.00;99.90
3406;DHT22;10008;48.682;9.016;2023-06-10T04:47:47;15.10;99.90
3406;DHT22;10008;48.682;9.016;2023-06-10T04:50:13;15.20;99.90
3406;DHT22;10008;48.682;9.016;2023-06-10T04:52:38;15.30;99.90
3406;DHT22;10008;48.682;9.016;2023-06-10T04:55:07;15.40;99.90
3406;DHT22;10008;48.682;9.016;2023-06-10T04:57:33;15.50;99.90
3406;DHT22;10008;48.682;9.016;2023-06-10T04:59:59;15.60;99.90
3406;DHT22;10008;48.682;9.016;2023-06-10T05:02:25;15.70;99.90
3406;DHT22;10008;48.682;9.016;2023-06-10T05:04:50;15.80;99.90
3406;DHT22;10008;48.682;9.016;2023-06-10T05:07:16;15.90;99.90
3406;DHT22;10008;48.682;9.016;2023-06-10T05:09:42;16.00;99.90
3406;DHT22;10008;48.682;9.016;2023-06-10T05:12:08;16.20;99.90
3406;DHT22;10008;48.682;9.016;2023-06-10T05:14:34;16.30;99.90
3406;DHT22;10008;48.682;9.016;2023-06-10T05:17:00;16.40;99.90
3406;DHT22;10008;48.682;9.016;2023-06-10T05:19:26;16.50;99.90
3406;DHT22;10008;48.682;9.016;2023-06-10T05:21:52;16.60;99.90
3406;DHT22;10008;48.682;9.016;2023-06-10T05:24:18;16.80;99.90
3406;DHT22;10008;48.682;9.016;2023-06-10T05:26:44;16.90;99.90
3406;DHT22;10008;48.682;9.016;2023-06-10T05:29:09;17.00;99.90
3406;DHT22;10008;48.682;9.016;2023-06-10T05:31:36;17.10;99.90
3406;DHT22;10008;48.682;9.016;2023-06-10T05:34:01;17.20;99.90
3406;DHT22;10008;48.682;9.016;2023-06-10T05:36:27;17.20;99.90
3406;DHT22;10008;48.682;9.016;2023-06-10T05:38:53;17.40;99.90
3406;DHT22;10008;48.682;9.016;2023-06-10T05:41:18;17.50;99.90
3406;DHT22;10008;48.682;9.016;2023-06-10T05:43:44;17.60;99.90
3406;DHT22;10008;48.682;9.016;2023-06-10T05:46:10;17.80;99.90
3406;DHT22;10008;48.682;9.016;2023-06-10T05:48:36;18.00;99.90
3406;DHT22;10008;48.682;9.016;2023-06-10T05:51:01;18.30;99.90
3406;DHT22;10008;48.682;9.016;2023-06-10T05:53:27;18.40;99.90
3406;DHT22;10008;48.682;9.016;2023-06-10T05:55:53;18.60;99.90
3406;DHT22;10008;48.682;9.016;2023-06-10T05:58:23;18.70;99.90
3406;DHT22;10008;48.682;9.016;2023-06-10T06:00:49;18.90;99.90
3406;DHT22;10008;48.682;9.016;2023-06-10T06:03:15;19.00;99.90
3406;DHT22;10008;48.682;9.016;2023-06-10T06:05:41;19.10;99.90
3406;DHT22;10008;48.682;9.016;2023-06-10T06:08:10;19.20;99.90
3406;DHT22;10008;48.682;9.016;2023-06-10T06:10:36;19.30;99.90
3406;DHT22;10008;48.682;9.016;2023-06-10T06:13:03;19.80;99.90
3406;DHT22;10008;48.682;9.016;2023-06-10T06:15:28;21.00;99.90
3406;DHT22;10008;48.682;9.016;2023-06-10T06:17:54;22.20;99.90
3406;DHT22;10008;48.682;9.016;2023-06-10T06:20:21;23.30;99.20
3406;DHT22;10008;48.682;9.016;2023-06-10T06:22:47;23.90;96.70
3406;DHT22;10008;48.682;9.016;2023-06-10T06:25:13;24.00;96.00
3406;DHT22;10008;48.682;9.016;2023-06-10T06:27:39;25.20;95.10
3406;DHT22;10008;48.682;9.016;2023-06-10T06:30:05;25.80;93.60
3406;DHT22;10008;48.682;9.016;2023-06-10T06:32:31;26.90;92.40
3406;DHT22;10008;48.682;9.016;2023-06-10T06:34:57;27.50;90.80
3406;DHT22;10008;48.682;9.016;2023-06-10T06:37:24;28.40;88.90
3406;DHT22;10008;48.682;9.016;2023-06-10T06:39:58;29.40;84.50
3406;DHT22;10008;48.682;9.016;2023-06-10T06:42:24;29.60;80.20
3406;DHT22;10008;48.682;9.016;2023-06-10T06:45:00;29.70;79.30
3406;DHT22;10008;48.682;9.016;2023-06-10T06:47:26;29.60;78.10
3406;DHT22;10008;48.682;9.016;2023-06-10T06:49:52;29.40;77.70
3406;DHT22;10008;48.682;9.016;2023-06-10T06:52:17;29.20;76.90
3406;DHT22;10008;48.682;9.016;2023-06-10T06:54:44;29.30;77.60
3406;DHT22;10008;48.682;9.016;2023-06-10T06:57:10;29.20;75.70
3406;DHT22;10008;48.682;9.016;2023-06-10T06:59:36;29.00;76.00
3406;DHT22;10008;48.682;9.016;2023-06-10T07:02:03;28.70;76.20
3406;DHT22;10008;48.682;9.016;2023-06-10T07:04:29;28.50;78.80
3406;DHT22;10008;48.682;9.016;2023-06-10T07:06:55;29.60;77.20
3406;DHT22;10008;48.682;9.016;2023-06-10T07:09:21;29.90;74.10
3406;DHT22;10008;48.682;9.016;2023-06-10T07:11:47;30.00;73.10
3406;DHT22;10008;48.682;9.016;2023-06-10T07:14:12;29.90;73.30
3406;DHT22;10008;48.682;9.016;2023-06-10T07:16:38;30.20;73.20
3406;DHT22;10008;48.682;9.016;2023-06-10T07:19:04;29.40;72.80
3406;DHT22;10008;48.682;9.016;2023-06-10T07:21:30;29.40;73.70
3406;DHT22;10008;48.682;9.016;2023-06-10T07:23:56;29.20;73.00
3406;DHT22;10008;48.682;9.016;2023-06-10T07:26:22;29.20;73.40
3406;DHT22;10008;48.682;9.016;2023-06-10T07:28:48;28.90;73.10
3406;DHT22;10008;48.682;9.016;2023-06-10T07:31:14;29.00;74.00
3406;DHT22;10008;48.682;9.016;2023-06-10T07:33:40;29.60;73.10
3406;DHT22;10008;48.682;9.016;2023-06-10T07:36:06;30.40;71.70
3406;DHT22;10008;48.682;9.016;2023-06-10T07:38:32;31.20;70.10
3406;DHT22;10008;48.682;9.016;2023-06-10T07:40:58;30.60;68.70
3406;DHT22;10008;48.682;9.016;2023-06-10T07:43:24;30.00;68.60
3406;DHT22;10008;48.682;9.016;2023-06-10T07:45:50;29.40;69.00
3406;DHT22;10008;48.682;9.016;2023-06-10T07:48:16;28.50;70.80
3406;DHT22;10008;48.682;9.016;2023-06-10T07:50:41;28.60;72.30
3406;DHT22;10008;48.682;9.016;2023-06-10T07:53:07;29.10;71.10
3406;DHT22;10008;48.682;9.016;2023-06-10T07:55:33;28.60;70.80
3406;DHT22;10008;48.682;9.016;2023-06-10T07:57:59;28.80;71.70
3406;DHT22;10008;48.682;9.016;2023-06-10T08:00:24;29.30;70.70
3406;DHT22;10008;48.682;9.016;2023-06-10T08:02:50;29.30;69.30
3406;DHT22;10008;48.682;9.016;2023-06-10T08:05:16;29.10;70.30
3406;DHT22;10008;48.682;9.016;2023-06-10T08:07:42;29.20;70.80
3406;DHT22;10008;48.682;9.016;2023-06-10T08:10:09;29.70;70.70
3406;DHT22;10008;48.682;9.016;2023-06-10T08:12:35;29.50;69.50
3406;DHT22;10008;48.682;9.016;2023-06-10T08:15:02;29.00;69.70
3406;DHT22;10008;48.682;9.016;2023-06-10T08:17:30;29.40;70.80
3406;DHT22;10008;48.682;9.016;2023-06-10T08:19:56;30.30;70.00
3406;DHT22;10008;48.682;9.016;2023-06-10T08:22:22;30.50;68.80
3406;DHT22;10008;48.682;9.016;2023-06-10T08:24:47;30.60;67.20
3406;DHT22;10008;48.682;9.016;2023-06-10T08:27:13;30.50;66.10
3406;DHT22;10008;48.682;9.016;2023-06-10T08:29:39;30.50;66.60
3406;DHT22;10008;48.682;9.016;2023-06-10T08:32:06;30.50;65.90
3406;DHT22;10008;48.682;9.016;2023-06-10T08:34:35;30.30;65.90
3406;DHT22;10008;48.682;9.016;2023-06-10T08:37:02;30.40;66.80
3406;DHT22;10008;48.682;9.016;2023-06-10T08:39:28;30.60;66.20
3406;DHT22;10008;48.682;9.016;2023-06-10T08:42:23;30.40;66.60
3406;DHT22;10008;48.682;9.016;2023-06-10T08:44:56;31.00;66.90
3406;DHT22;10008;48.682;9.016;2023-06-10T08:47:23;31.40;64.50
3406;DHT22;10008;48.682;9.016;2023-06-10T08:49:51;31.50;63.90
3406;DHT22;10008;48.682;9.016;2023-06-10T08:52:19;32.00;63.40
3406;DHT22;10008;48.682;9.016;2023-06-10T08:54:59;31.70;62.20
3406;DHT22;10008;48.682;9.016;2023-06-10T08:57:25;31.10;62.70
3406;DHT22;10008;48.682;9.016;2023-06-10T08:59:53;31.20;64.30
3406;DHT22;10008;48.682;9.016;2023-06-10T09:02:20;32.00;64.20
3406;DHT22;10008;48.682;9.016;2023-06-10T09:04:47;31.90;61.40
3406;DHT22;10008;48.682;9.016;2023-06-10T09:07:16;32.20;60.20
3406;DHT22;10008;48.682;9.016;2023-06-10T09:09:45;32.00;60.40
3406;DHT22;10008;48.682;9.016;2023-06-10T09:12:12;32.00;60.20
3406;DHT22;10008;48.682;9.016;2023-06-10T09:14:38;32.10;60.40
3406;DHT22;10008;48.682;9.016;2023-06-10T09:17:05;32.60;60.40
3406;DHT22;10008;48.682;9.016;2023-06-10T09:19:32;32.60;59.00
3406;DHT22;10008;48.682;9.016;2023-06-10T09:21:59;32.30;58.60
3406;DHT22;10008;48.682;9.016;2023-06-10T09:24:25;32.20;58.80
3406;DHT22;10008;48.682;9.016;2023-06-10T09:27:03;32.20;59.30
3406;DHT22;10008;48.682;9.016;2023-06-10T09:29:29;32.10;58.60
3406;DHT22;10008;48.682;9.016;2023-06-10T09:31:55;32.40;58.30
3406;DHT22;10008;48.682;9.016;2023-06-10T09:34:25;32.20;59.80
3406;DHT22;10008;48.682;9.016;2023-06-10T09:36:51;32.50;58.50
3406;DHT22;10008;48.682;9.016;2023-06-10T09:39:18;32.80;58.40
3406;DHT22;10008;48.682;9.016;2023-06-10T09:41:45;33.00;58.90
3406;DHT22;10008;48.682;9.016;2023-06-10T09:44:16;33.20;58.70
3406;DHT22;10008;48.682;9.016;2023-06-10T09:46:47;33.60;56.40
3406;DHT22;10008;48.682;9.016;2023-06-10T09:49:14;33.80;57.60
3406;DHT22;10008;48.682;9.016;2023-06-10T09:51:53;33.80;57.50
3406;DHT22;10008;48.682;9.016;2023-06-10T09:54:22;34.00;58.50
3406;DHT22;10008;48.682;9.016;2023-06-10T09:56:50;34.20;56.30
3406;DHT22;10008;48.682;9.016;2023-06-10T09:59:27;34.00;58.50
3406;DHT22;10008;48.682;9.016;2023-06-10T10:01:56;34.40;59.40
3406;DHT22;10008;48.682;9.016;2023-06-10T10:04:26;34.50;55.80
3406;DHT22;10008;48.682;9.016;2023-06-10T10:06:52;34.50;56.10
3406;DHT22;10008;48.682;9.016;2023-06-10T10:09:18;34.80;55.50
3406;DHT22;10008;48.682;9.016;2023-06-10T10:11:44;35.30;54.50
3406;DHT22;10008;48.682;9.016;2023-06-10T10:14:12;35.30;52.40
3406;DHT22;10008;48.682;9.016;2023-06-10T10:16:41;35.00;53.50
3406;DHT22;10008;48.682;9.016;2023-06-10T10:19:11;35.10;51.50
3406;DHT22;10008;48.682;9.016;2023-06-10T10:21:50;35.00;52.10
3406;DHT22;10008;48.682;9.016;2023-06-10T10:24:22;35.60;52.20
3406;DHT22;10008;48.682;9.016;2023-06-10T10:26:50;35.70;52.20
3406;DHT22;10008;48.682;9.016;2023-06-10T10:29:31;36.40;51.80
3406;DHT22;10008;48.682;9.016;2023-06-10T10:32:00;36.90;50.00
3406;DHT22;10008;48.682;9.016;2023-06-10T10:37:14;37.80;47.90
3406;DHT22;10008;48.682;9.016;2023-06-10T10:39:40;38.00;47.50
3406;DHT22;10008;48.682;9.016;2023-06-10T10:42:07;36.60;47.40
3406;DHT22;10008;48.682;9.016;2023-06-10T10:44:37;35.90;50.90
3406;DHT22;10008;48.682;9.016;2023-06-10T10:47:04;36.70;49.10
3406;DHT22;10008;48.682;9.016;2023-06-10T10:49:31;37.10;46.60
3406;DHT22;10008;48.682;9.016;2023-06-10T10:51:59;36.30;47.00
3406;DHT22;10008;48.682;9.016;2023-06-10T10:54:32;34.90;48.60
3406;DHT22;10008;48.682;9.016;2023-06-10T10:57:11;33.30;50.60
3406;DHT22;10008;48.682;9.016;2023-06-10T11:02:36;32.80;52.00
3406;DHT22;10008;48.682;9.016;2023-06-10T11:05:05;33.50;54.40
3406;DHT22;10008;48.682;9.016;2023-06-10T11:07:31;34.80;51.10
3406;DHT22;10008;48.682;9.016;2023-06-10T11:12:51;36.10;45.00
3406;DHT22;10008;48.682;9.016;2023-06-10T11:15:19;35.50;46.90
3406;DHT22;10008;48.682;9.016;2023-06-10T11:26:29;37.00;43.70
3406;DHT22;10008;48.682;9.016;2023-06-10T11:34:03;34.90;47.60
3406;DHT22;10008;48.682;9.016;2023-06-10T11:36:31;36.00;46.10
3406;DHT22;10008;48.682;9.016;2023-06-10T11:39:02;34.80;46.00
3406;DHT22;10008;48.682;9.016;2023-06-10T11:41:29;35.70;47.40
3406;DHT22;10008;48.682;9.016;2023-06-10T11:43:58;36.90;46.80
3406;DHT22;10008;48.682;9.016;2023-06-10T11:46:26;37.30;45.30
3406;DHT22;10008;48.682;9.016;2023-06-10T11:48:58;37.00;46.30
3406;DHT22;10008;48.682;9.016;2023-06-10T11:51:29;37.30;44.90
3406;DHT22;10008;48.682;9.016;2023-06-10T11:53:55;36.60;45.30
3406;DHT22;10008;48.682;9.016;2023-06-10T11:56:28;35.60;46.90
3406;DHT22;10008;48.682;9.016;2023-06-10T11:59:12;34.30;48.50
3406;DHT22;10008;48.682;9.016;2023-06-10T12:01:42;32.70;51.00
3406;DHT22;10008;48.682;9.016;2023-06-10T12:04:16;32.60;52.90
3406;DHT22;10008;48.682;9.016;2023-06-10T12:06:48;33.00;50.00
3406;DHT22;10008;48.682;9.016;2023-06-10T12:12:02;33.90;47.80
3406;DHT22;10008;48.682;9.016;2023-06-10T12:19:57;36.10;46.80
3406;DHT22;10008;48.682;9.016;2023-06-10T12:22:23;36.10;46.00
3406;DHT22;10008;48.682;9.016;2023-06-10T12:25:02;36.50;45.80
3406;DHT22;10008;48.682;9.016;2023-06-10T12:27:33;35.70;46.10
3406;DHT22;10008;48.682;9.016;2023-06-10T12:30:03;34.20;47.60
3406;DHT22;10008;48.682;9.016;2023-06-10T12:35:05;32.80;50.00
3406;DHT22;10008;48.682;9.016;2023-06-10T12:37:31;32.20;51.20
3406;DHT22;10008;48.682;9.016;2023-06-10T12:40:01;31.80;51.90
3406;DHT22;10008;48.682;9.016;2023-06-10T12:42:29;31.70;52.10
3406;DHT22;10008;48.682;9.016;2023-06-10T12:44:56;31.20;53.40
3406;DHT22;10008;48.682;9.016;2023-06-10T12:47:36;30.50;54.00
3406;DHT22;10008;48.682;9.016;2023-06-10T12:50:05;30.30;54.30
3406;DHT22;10008;48.682;9.016;2023-06-10T12:52:31;29.90;57.10
3406;DHT22;10008;48.682;9.016;2023-06-10T12:54:58;29.70;56.40
3406;DHT22;10008;48.682;9.016;2023-06-10T12:57:24;29.20;56.70
3406;DHT22;10008;48.682;9.016;2023-06-10T12:59:50;29.70;56.40
3406;DHT22;10008;48.682;9.016;2023-06-10T13:02:19;30.90;55.20
3406;DHT22;10008;48.682;9.016;2023-06-10T13:04:49;31.60;52.30
3406;DHT22;10008;48.682;9.016;2023-06-10T13:07:15;32.30;54.20
3406;DHT22;10008;48.682;9.016;2023-06-10T13:09:41;33.40;49.80
3406;DHT22;10008;48.682;9.016;2023-06-10T13:12:07;33.80;48.70
3406;DHT22;10008;48.682;9.016;2023-06-10T13:14:33;34.20;49.00
3406;DHT22;10008;48.682;9.016;2023-06-10T13:16:59;34.00;48.60
3406;DHT22;10008;48.682;9.016;2023-06-10T13:19:25;33.60;49.60
3406;DHT22;10008;48.682;9.016;2023-06-10T13:21:52;32.70;50.80
3406;DHT22;10008;48.682;9.016;2023-06-10T13:24:17;31.80;52.50
3406;DHT22;10008;48.682;9.016;2023-06-10T13:26:43;32.00;52.30
3406;DHT22;10008;48.682;9.016;2023-06-10T13:29:09;31.90;53.30
3406;DHT22;10008;48.682;9.016;2023-06-10T13:31:40;31.20;52.90
3406;DHT22;10008;48.682;9.016;2023-06-10T13:34:06;30.60;54.10
3406;DHT22;10008;48.682;9.016;2023-06-10T13:36:32;30.00;54.90
3406;DHT22;10008;48.682;9.016;2023-06-10T13:38:57;29.70;56.10
3406;DHT22;10008;48.682;9.016;2023-06-10T13:41:23;29.70;56.20
3406;DHT22;10008;48.682;9.016;2023-06-10T13:43:50;29.90;55.50
3406;DHT22;10008;48.682;9.016;2023-06-10T13:46:16;30.40;54.90
3406;DHT22;10008;48.682;9.016;2023-06-10T13:48:41;30.80;55.70
3406;DHT22;10008;48.682;9.016;2023-06-10T13:51:07;31.80;53.50
3406;DHT22;10008;48.682;9.016;2023-06-10T13:53:34;32.40;52.50
3406;DHT22;10008;48.682;9.016;2023-06-10T13:56:01;32.80;50.80
3406;DHT22;10008;48.682;9.016;2023-06-10T13:58:27;33.50;51.80
3406;DHT22;10008;48.682;9.016;2023-06-10T14:00:52;33.60;52.10
3406;DHT22;10008;48.682;9.016;2023-06-10T14:03:18;33.50;51.00
3406;DHT22;10008;48.682;9.016;2023-06-10T14:05:44;33.60;50.30
3406;DHT22;10008;48.682;9.016;2023-06-10T14:08:10;33.10;51.00
3406;DHT22;10008;48.682;9.016;2023-06-10T14:10:35;32.90;50.90
3406;DHT22;10008;48.682;9.016;2023-06-10T14:13:01;32.50;51.10
3406;DHT22;10008;48.682;9.016;2023-06-10T14:15:27;31.80;51.80
3406;DHT22;10008;48.682;9.016;2023-06-10T14:17:52;31.00;53.30
3406;DHT22;10008;48.682;9.016;2023-06-10T14:20:18;30.70;55.70
3406;DHT22;10008;48.682;9.016;2023-06-10T14:22:44;30.50;54.90
3406;DHT22;10008;48.682;9.016;2023-06-10T14:25:09;30.50;54.80
3406;DHT22;10008;48.682;9.016;2023-06-10T14:27:36;30.60;54.80
3406;DHT22;10008;48.682;9.016;2023-06-10T14:30:04;30.50;54.70
3406;DHT22;10008;48.682;9.016;2023-06-10T14:32:31;30.50;55.60
3406;DHT22;10008;48.682;9.016;2023-06-10T14:34:57;30.60;55.90
3406;DHT22;10008;48.682;9.016;2023-06-10T14:37:23;30.80;54.20
3406;DHT22;10008;48.682;9.016;2023-06-10T14:39:48;30.70;54.30
3406;DHT22;10008;48.682;9.016;2023-06-10T14:42:14;30.60;54.50
3406;DHT22;10008;48.682;9.016;2023-06-10T14:44:40;30.50;54.20
3406;DHT22;10008;48.682;9.016;2023-06-10T14:47:06;30.20;54.70
3406;DHT22;10008;48.682;9.016;2023-06-10T14:49:31;29.90;55.20
3406;DHT22;10008;48.682;9.016;2023-06-10T14:51:58;29.90;55.80
3406;DHT22;10008;48.682;9.016;2023-06-10T14:54:23;29.90;55.00
3406;DHT22;10008;48.682;9.016;2023-06-10T14:56:49;29.80;54.70
3406;DHT22;10008;48.682;9.016;2023-06-10T14:59:15;29.90;55.90
3406;DHT22;10008;48.682;9.016;2023-06-10T15:01:40;30.10;56.60
3406;DHT22;10008;48.682;9.016;2023-06-10T15:04:06;30.20;55.20
3406;DHT22;10008;48.682;9.016;2023-06-10T15:06:32;30.20;54.80
3406;DHT22;10008;48.682;9.016;2023-06-10T15:08:57;30.30;56.70
3406;DHT22;10008;48.682;9.016;2023-06-10T15:11:23;30.60;54.60
3406;DHT22;10008;48.682;9.016;2023-06-10T15:13:49;31.20;53.40
3406;DHT22;10008;48.682;9.016;2023-06-10T15:16:14;31.50;53.10
3406;DHT22;10008;48.682;9.016;2023-06-10T15:18:40;31.90;52.40
3406;DHT22;10008;48.682;9.016;2023-06-10T15:21:06;32.20;52.20
3406;DHT22;10008;48.682;9.016;2023-06-10T15:23:32;32.50;51.50
3406;DHT22;10008;48.682;9.016;2023-06-10T15:25:58;32.00;51.40
3406;DHT22;10008;48.682;9.016;2023-06-10T15:28:23;31.70;51.90
3406;DHT22;10008;48.682;9.016;2023-06-10T15:30:49;31.40;51.40
3406;DHT22;10008;48.682;9.016;2023-06-10T15:33:15;31.10;52.30
3406;DHT22;10008;48.682;9.016;2023-06-10T15:35:40;30.70;53.00
3406;DHT22;10008;48.682;9.016;2023-06-10T15:38:06;30.20;53.80
3406;DHT22;10008;48.682;9.016;2023-06-10T15:40:32;30.00;55.20
3406;DHT22;10008;48.682;9.016;2023-06-10T15:42:58;30.40;55.40
3406;DHT22;10008;48.682;9.016;2023-06-10T15:45:23;30.50;55.00
3406;DHT22;10008;48.682;9.016;2023-06-10T15:47:49;30.50;55.10
3406;DHT22;10008;48.682;9.016;2023-06-10T15:50:15;30.80;54.30
3406;DHT22;10008;48.682;9.016;2023-06-10T15:52:40;30.80;54.40
3406;DHT22;10008;48.682;9.016;2023-06-10T15:55:06;30.70;54.70
3406;DHT22;10008;48.682;9.016;2023-06-10T15:57:32;30.10;55.50
3406;DHT22;10008;48.682;9.016;2023-06-10T15:59:58;29.50;56.60
3406;DHT22;10008;48.682;9.016;2023-06-10T16:02:24;29.30;58.10
3406;DHT22;10008;48.682;9.016;2023-06-10T16:04:49;29.60;56.60
3406;DHT22;10008;48.682;9.016;2023-06-10T16:07:15;29.70;55.60
3406;DHT22;10008;48.682;9.016;2023-06-10T16:09:41;29.60;56.10
3406;DHT22;10008;48.682;9.016;2023-06-10T16:12:07;29.60;56.40
3406;DHT22;10008;48.682;9.016;2023-06-10T16:14:33;29.50;56.20
3406;DHT22;10008;48.682;9.016;2023-06-10T16:16:58;29.10;56.10
3406;DHT22;10008;48.682;9.016;2023-06-10T16:19:24;28.80;57.30
3406;DHT22;10008;48.682;9.016;2023-06-10T16:21:50;28.80;57.60
3406;DHT22;10008;48.682;9.016;2023-06-10T16:24:16;28.70;57.80
3406;DHT22;10008;48.682;9.016;2023-06-10T16:26:42;28.70;57.60